Stannard, Vermont
Current Conditions -  °F | °C
As of 3:15 AM on Saturday 25 Oct 2014 (Local Time) from KCDA Reporting Station
Clear Clear  
Wind Chill: 35°   Ceiling: Unl
Heat Index: 35°   Visibility: 10mi
Dew Point: 33°   Wind: 3mph
Humidity: 92%   Direction: 10°N
Pressure: 29.77"   Gusts: NA
Location:  44.542°N, 72.2145°W
Report Text: KCDA 250715Z AUTO 01003KT 10SM CLR 02/01 A2977 RMK AO2 T00170005
Loading
Personal Weather Stations






























Interactive Weather Map
Tropical Storm Tracking
New forecast layout! Learn more

10-Day Weather Forecast

Advertisements
Track Severe Weather on mobile